Kezdőlap
METAR-TAF:

METAR-TAF

Repülőterek :

Shepherd Bay, Nunavut, Kanada

földrajzi szélesség: 68-49N, földrajzi hosszúság: 093-26W, magasság: 51 m

Jelenlegi meteorológiai megfigyelések

A jelentés 31 perccel ezelõtt készült, 07:00 UTC
Északnyugati szél 5 kt széllökések: 17 kt, nyugat-északnyugati és keleti között változik
Hőmérséklet -9°C
Páratartalom 92%
Légköri nyomás 1027 hPa

METAR: CYUS 220700Z AUTO 32005G17KT 300V080 ////SM //// ////// M09/M10 A3032

Idő: 01:31 (07:31 UTC)


TAF: hiányzik

Meteorológiai megfigyelések és előrejelzések több, mint 4000 repülőtéren (METAR és TAF jelentéseket).

A térképen piros és sárga pontok jelzik az elérhető meteorológiai állomásokat.

Mozgassa az egeret a pont fölött, hogy megjelenjen az állomás neve.

Azután kattintson az időjárási megfigyelések és előrejelzések megtekintéséhez.

A térkép megváltoztatása: kattintson a fekete keresztel jelölt zöld gombra ráközelítéshez, a vonallal jelölt zöld gombra távolításhoz, vagy a zöld nyilakra a szomszédos térképek eléréséhez.


METAR-TAF: